Main page
METAR-TAF:

METAR-TAF

Airports :

Cabinda Airport

Cabinda, Angola

latitude: 5-35-50S, longitude: 12-11-17E, elevation: 20 m

Current weather observation

The report was made 9 hours and 38 minutes ago, at 19:00 UTC
Wind 5 kt from the West/Southwest
Temperature 29°C
Humidity 74%
Pressure 1012 hPa
Visibility 10 km or more
Few clouds at a height of 2000 ft

METAR: FNCA 201900Z 24005KT 9999 FEW020 29/24 Q1012

Time: 05:38 (04:38 UTC)

Forecast

The report was made 5 hours and 53 minutes ago, at 22:45 UTC
Forecast valid from 21 at 00 UTC to 21 at 12 UTC
Wind 3 kt from variable directions
Visibility 10 km or more
Scattered clouds at a height of 2200 ft
Probability 30% :
Temporary
from 21 at 08 UTC to 21 at 12 UTC
Wind 8 kt from the West
Visibility: 7000 m
Scattered clouds at a height of 1600 ft
Broken clouds at a height of 2300 ft
light rain

TAF: FNCA 202245Z 2100/2112 VRB03KT 9999 SCT022 PROB30 TEMPO 2108/2112 26008KT 7000 -RA SCT016 BKN023

Weather observations and forecasts of more than 4000 airports (METAR and TAF reports).

The available stations are represented by yellow and red dots on the map.

Hover mouse over dot to see the name of the station.

Then click to see weather observations and forecasts.

To change the map : click on the green buttons with a black cross to zoom in, on the green button with a dash to zoom out, or on the green arrows for adjacent maps.


METAR-TAF: